sensor_id;sensor_type;location;lat;lon;timestamp;pressure;altitude;pressure_sealevel;temperature;humidity
30614;BME280;17381;51.690;5.270;2023-05-13T00:02:15;102008.38;;;15.88;63.24
30614;BME280;17381;51.690;5.270;2023-05-13T00:04:58;102021.31;;;15.99;63.37
30614;BME280;17381;51.690;5.270;2023-05-13T00:07:49;102030.22;;;15.96;63.58
30614;BME280;17381;51.690;5.270;2023-05-13T00:10:41;102021.47;;;15.92;63.54
30614;BME280;17381;51.690;5.270;2023-05-13T00:13:29;102025.97;;;15.90;63.34
30614;BME280;17381;51.690;5.270;2023-05-13T00:16:14;102021.75;;;15.83;63.51
30614;BME280;17381;51.690;5.270;2023-05-13T00:18:45;102032.25;;;15.86;63.48
30614;BME280;17381;51.690;5.270;2023-05-13T00:21:45;102015.66;;;15.80;63.56
30614;BME280;17381;51.690;5.270;2023-05-13T00:24:37;102018.34;;;15.78;63.85
30614;BME280;17381;51.690;5.270;2023-05-13T00:27:33;102027.94;;;15.82;63.93
30614;BME280;17381;51.690;5.270;2023-05-13T00:30:34;102017.53;;;15.76;63.88
30614;BME280;17381;51.690;5.270;2023-05-13T00:36:43;102015.19;;;15.64;63.32
30614;BME280;17381;51.690;5.270;2023-05-13T00:39:51;102022.25;;;15.65;63.56
30614;BME280;17381;51.690;5.270;2023-05-13T00:42:29;102020.47;;;15.64;63.19
30614;BME280;17381;51.690;5.270;2023-05-13T00:45:15;101972.81;;;15.31;63.34
30614;BME280;17381;51.690;5.270;2023-05-13T00:48:15;102023.34;;;15.56;63.18
30614;BME280;17381;51.690;5.270;2023-05-13T00:50:55;102023.50;;;15.52;63.40
30614;BME280;17381;51.690;5.270;2023-05-13T00:53:36;102020.09;;;15.46;63.54
30614;BME280;17381;51.690;5.270;2023-05-13T00:56:11;102026.19;;;15.48;63.29
30614;BME280;17381;51.690;5.270;2023-05-13T00:58:55;102020.91;;;15.48;63.88
30614;BME280;17381;51.690;5.270;2023-05-13T01:11:37;101996.16;;;15.17;63.13
30614;BME280;17381;51.690;5.270;2023-05-13T01:14:39;102028.47;;;15.31;63.25
30614;BME280;17381;51.690;5.270;2023-05-13T01:17:54;102006.66;;;15.20;62.60
30614;BME280;17381;51.690;5.270;2023-05-13T01:20:51;102012.78;;;15.22;62.70
30614;BME280;17381;51.690;5.270;2023-05-13T01:23:55;102017.16;;;15.23;62.44
30614;BME280;17381;51.690;5.270;2023-05-13T01:26:32;102014.53;;;15.23;62.36
30614;BME280;17381;51.690;5.270;2023-05-13T01:29:18;102006.75;;;15.17;62.65
30614;BME280;17381;51.690;5.270;2023-05-13T01:32:13;102021.56;;;15.24;62.66
30614;BME280;17381;51.690;5.270;2023-05-13T01:35:47;102020.84;;;15.17;62.01
30614;BME280;17381;51.690;5.270;2023-05-13T01:38:46;101988.81;;;14.94;62.11
30614;BME280;17381;51.690;5.270;2023-05-13T01:41:47;101971.47;;;14.82;62.63
30614;BME280;17381;51.690;5.270;2023-05-13T01:44:36;102015.09;;;15.01;62.24
30614;BME280;17381;51.690;5.270;2023-05-13T01:47:32;102017.78;;;15.00;62.27
30614;BME280;17381;51.690;5.270;2023-05-13T01:53:36;102024.06;;;14.96;61.59
30614;BME280;17381;51.690;5.270;2023-05-13T01:56:31;101972.84;;;14.61;61.54
30614;BME280;17381;51.690;5.270;2023-05-13T02:02:27;102012.97;;;14.80;61.77
30614;BME280;17381;51.690;5.270;2023-05-13T02:05:17;102020.84;;;14.83;61.96
30614;BME280;17381;51.690;5.270;2023-05-13T02:08:17;102009.69;;;14.69;62.17
30614;BME280;17381;51.690;5.270;2023-05-13T02:11:15;102021.78;;;14.80;62.31
30614;BME280;17381;51.690;5.270;2023-05-13T02:13:58;102027.09;;;14.79;62.75
30614;BME280;17381;51.690;5.270;2023-05-13T02:16:53;102026.22;;;14.80;61.93
30614;BME280;17381;51.690;5.270;2023-05-13T02:19:45;102013.28;;;14.66;62.54
30614;BME280;17381;51.690;5.270;2023-05-13T02:22:34;102023.00;;;14.67;61.90
30614;BME280;17381;51.690;5.270;2023-05-13T02:25:31;101993.34;;;14.51;61.96
30614;BME280;17381;51.690;5.270;2023-05-13T02:28:04;102020.44;;;14.63;62.03
30614;BME280;17381;51.690;5.270;2023-05-13T02:30:56;102022.31;;;14.59;61.86
30614;BME280;17381;51.690;5.270;2023-05-13T02:33:54;102019.66;;;14.59;62.10
30614;BME280;17381;51.690;5.270;2023-05-13T02:37:12;102017.16;;;14.51;62.34
30614;BME280;17381;51.690;5.270;2023-05-13T02:40:12;102023.31;;;14.52;62.63
30614;BME280;17381;51.690;5.270;2023-05-13T02:43:24;102019.88;;;14.48;62.96
30614;BME280;17381;51.690;5.270;2023-05-13T02:46:23;102004.19;;;14.40;63.10
30614;BME280;17381;51.690;5.270;2023-05-13T02:49:28;102005.94;;;14.40;63.20
30614;BME280;17381;51.690;5.270;2023-05-13T02:52:20;102023.56;;;14.41;63.20
30614;BME280;17381;51.690;5.270;2023-05-13T02:55:23;102022.81;;;14.36;63.27
30614;BME280;17381;51.690;5.270;2023-05-13T02:58:15;102023.75;;;14.33;63.26
30614;BME280;17381;51.690;5.270;2023-05-13T03:01:06;102008.97;;;14.23;63.31
30614;BME280;17381;51.690;5.270;2023-05-13T03:04:20;102011.72;;;14.18;63.37
30614;BME280;17381;51.690;5.270;2023-05-13T03:07:06;101960.53;;;13.81;63.33
30614;BME280;17381;51.690;5.270;2023-05-13T03:09:51;102011.03;;;14.10;63.44
30614;BME280;17381;51.690;5.270;2023-05-13T03:12:47;102020.75;;;14.08;63.29
30614;BME280;17381;51.690;5.270;2023-05-13T03:15:56;102021.63;;;14.09;63.45
30614;BME280;17381;51.690;5.270;2023-05-13T03:18:39;102027.84;;;14.06;63.87
30614;BME280;17381;51.690;5.270;2023-05-13T03:21:25;101960.84;;;13.67;63.62
30614;BME280;17381;51.690;5.270;2023-05-13T03:24:07;102016.69;;;13.92;63.42
30614;BME280;17381;51.690;5.270;2023-05-13T03:26:50;102009.78;;;13.86;63.72
30614;BME280;17381;51.690;5.270;2023-05-13T03:29:42;102021.28;;;13.84;63.25
30614;BME280;17381;51.690;5.270;2023-05-13T03:32:36;102013.47;;;13.78;63.46
30614;BME280;17381;51.690;5.270;2023-05-13T03:35:44;102018.88;;;13.71;63.82
30614;BME280;17381;51.690;5.270;2023-05-13T03:38:54;102029.38;;;13.76;64.07
30614;BME280;17381;51.690;5.270;2023-05-13T03:41:48;102033.88;;;13.69;64.09
30614;BME280;17381;51.690;5.270;2023-05-13T03:44:39;102039.03;;;13.75;64.14
30614;BME280;17381;51.690;5.270;2023-05-13T03:47:31;102008.56;;;13.58;64.62
30614;BME280;17381;51.690;5.270;2023-05-13T03:50:19;102047.94;;;13.71;64.05
30614;BME280;17381;51.690;5.270;2023-05-13T03:53:21;102043.59;;;13.67;64.34
30614;BME280;17381;51.690;5.270;2023-05-13T03:56:05;102043.53;;;13.70;64.58
30614;BME280;17381;51.690;5.270;2023-05-13T03:58:56;102042.72;;;13.68;64.86
30614;BME280;17381;51.690;5.270;2023-05-13T04:01:59;102041.09;;;13.60;64.71
30614;BME280;17381;51.690;5.270;2023-05-13T04:05:08;102038.53;;;13.58;64.81
30614;BME280;17381;51.690;5.270;2023-05-13T04:08:03;102041.03;;;13.63;64.53
30614;BME280;17381;51.690;5.270;2023-05-13T04:11:13;102038.53;;;13.57;65.18
30614;BME280;17381;51.690;5.270;2023-05-13T04:14:27;102042.91;;;13.58;64.91
30614;BME280;17381;51.690;5.270;2023-05-13T04:17:08;102039.53;;;13.51;65.30
30614;BME280;17381;51.690;5.270;2023-05-13T04:19:55;102012.59;;;13.32;65.18
30614;BME280;17381;51.690;5.270;2023-05-13T04:22:39;102047.44;;;13.51;65.13
30614;BME280;17381;51.690;5.270;2023-05-13T04:26:02;101979.66;;;13.02;65.11
30614;BME280;17381;51.690;5.270;2023-05-13T04:28:57;102057.31;;;13.41;65.34
30614;BME280;17381;51.690;5.270;2023-05-13T04:31:44;102056.44;;;13.41;65.89
30614;BME280;17381;51.690;5.270;2023-05-13T04:34:58;102067.84;;;13.43;66.00
30614;BME280;17381;51.690;5.270;2023-05-13T04:38:23;102025.94;;;13.21;66.05
30614;BME280;17381;51.690;5.270;2023-05-13T04:41:25;102059.19;;;13.35;66.27
30614;BME280;17381;51.690;5.270;2023-05-13T04:44:31;102021.72;;;13.11;66.25
30614;BME280;17381;51.690;5.270;2023-05-13T04:47:51;102070.69;;;13.32;66.19
30614;BME280;17381;51.690;5.270;2023-05-13T04:51:18;102021.09;;;12.97;66.43
30614;BME280;17381;51.690;5.270;2023-05-13T04:54:06;102068.16;;;13.23;66.36
30614;BME280;17381;51.690;5.270;2023-05-13T04:57:15;102077.00;;;13.20;66.25
30614;BME280;17381;51.690;5.270;2023-05-13T05:00:06;102073.44;;;13.23;66.37
30614;BME280;17381;51.690;5.270;2023-05-13T05:03:17;102073.38;;;13.26;66.81
30614;BME280;17381;51.690;5.270;2023-05-13T05:05:58;102076.91;;;13.26;66.67
30614;BME280;17381;51.690;5.270;2023-05-13T05:08:57;102070.00;;;13.16;66.53
30614;BME280;17381;51.690;5.270;2023-05-13T05:11:59;102082.22;;;13.23;66.81
30614;BME280;17381;51.690;5.270;2023-05-13T05:14:51;102070.06;;;13.15;66.90
30614;BME280;17381;51.690;5.270;2023-05-13T05:17:29;102090.13;;;13.25;66.67
30614;BME280;17381;51.690;5.270;2023-05-13T05:20:20;102088.38;;;13.24;66.79
30614;BME280;17381;51.690;5.270;2023-05-13T05:23:22;102095.41;;;13.26;67.15
30614;BME280;17381;51.690;5.270;2023-05-13T05:26:07;102091.84;;;13.29;67.20
30614;BME280;17381;51.690;5.270;2023-05-13T05:29:09;102087.41;;;13.33;67.25
30614;BME280;17381;51.690;5.270;2023-05-13T05:32:23;102052.56;;;13.09;67.46
30614;BME280;17381;51.690;5.270;2023-05-13T05:35:07;102085.72;;;13.25;67.29
30614;BME280;17381;51.690;5.270;2023-05-13T05:38:42;102095.25;;;13.36;67.45
30614;BME280;17381;51.690;5.270;2023-05-13T05:41:18;102090.84;;;13.38;67.51
30614;BME280;17381;51.690;5.270;2023-05-13T05:44:16;102095.19;;;13.40;67.70
30614;BME280;17381;51.690;5.270;2023-05-13T05:47:02;102096.00;;;13.44;67.47
30614;BME280;17381;51.690;5.270;2023-05-13T05:49:49;102093.34;;;13.45;67.86
30614;BME280;17381;51.690;5.270;2023-05-13T05:52:47;102091.56;;;13.46;67.81
30614;BME280;17381;51.690;5.270;2023-05-13T05:55:35;102100.34;;;13.48;67.69
30614;BME280;17381;51.690;5.270;2023-05-13T05:58:21;102090.59;;;13.50;68.13
30614;BME280;17381;51.690;5.270;2023-05-13T06:01:25;102094.94;;;13.54;68.20
30614;BME280;17381;51.690;5.270;2023-05-13T06:04:29;102053.94;;;13.31;68.12
30614;BME280;17381;51.690;5.270;2023-05-13T06:07:42;102100.09;;;13.60;68.29
30614;BME280;17381;51.690;5.270;2023-05-13T06:10:24;102104.44;;;13.66;68.41
30614;BME280;17381;51.690;5.270;2023-05-13T06:13:05;102101.72;;;13.67;68.30
30614;BME280;17381;51.690;5.270;2023-05-13T06:15:40;102095.38;;;13.78;68.65
30614;BME280;17381;51.690;5.270;2023-05-13T06:18:09;102101.38;;;13.87;68.63
30614;BME280;17381;51.690;5.270;2023-05-13T06:20:59;102112.44;;;14.06;68.79
30614;BME280;17381;51.690;5.270;2023-05-13T06:23:47;102097.50;;;14.05;68.72
30614;BME280;17381;51.690;5.270;2023-05-13T06:26:34;102107.78;;;14.19;68.29
30614;BME280;17381;51.690;5.270;2023-05-13T06:29:13;102112.84;;;14.30;68.46
30614;BME280;17381;51.690;5.270;2023-05-13T06:31:54;102106.53;;;14.37;67.93
30614;BME280;17381;51.690;5.270;2023-05-13T06:34:37;102119.56;;;14.46;68.01
30614;BME280;17381;51.690;5.270;2023-05-13T06:37:23;102067.25;;;14.18;68.22
30614;BME280;17381;51.690;5.270;2023-05-13T06:40:16;102114.94;;;14.57;67.92
30614;BME280;17381;51.690;5.270;2023-05-13T06:42:55;102099.19;;;14.51;67.29
30614;BME280;17381;51.690;5.270;2023-05-13T06:46:01;102114.88;;;14.60;67.57
30614;BME280;17381;51.690;5.270;2023-05-13T06:48:47;102110.44;;;14.61;67.56
30614;BME280;17381;51.690;5.270;2023-05-13T06:51:25;102117.41;;;14.65;67.68
30614;BME280;17381;51.690;5.270;2023-05-13T06:54:00;102109.41;;;14.68;67.51
30614;BME280;17381;51.690;5.270;2023-05-13T06:56:36;102086.84;;;14.53;67.61
30614;BME280;17381;51.690;5.270;2023-05-13T06:59:11;102125.88;;;14.82;67.76
30614;BME280;17381;51.690;5.270;2023-05-13T07:01:56;102120.50;;;14.86;67.87
30614;BME280;17381;51.690;5.270;2023-05-13T07:04:31;102119.47;;;14.91;67.61
30614;BME280;17381;51.690;5.270;2023-05-13T07:07:14;102111.44;;;14.94;67.38
30614;BME280;17381;51.690;5.270;2023-05-13T07:09:51;102098.28;;;14.93;67.23
30614;BME280;17381;51.690;5.270;2023-05-13T07:12:34;102115.53;;;15.09;67.64
30614;BME280;17381;51.690;5.270;2023-05-13T07:15:08;102109.28;;;15.12;67.72
30614;BME280;17381;51.690;5.270;2023-05-13T07:17:51;102098.69;;;15.12;67.02
30614;BME280;17381;51.690;5.270;2023-05-13T07:20:32;102096.13;;;15.09;67.24
30614;BME280;17381;51.690;5.270;2023-05-13T07:23:24;102106.34;;;15.24;67.28
30614;BME280;17381;51.690;5.270;2023-05-13T07:26:01;102116.75;;;15.32;67.26
30614;BME280;17381;51.690;5.270;2023-05-13T07:28:27;102107.00;;;15.34;67.40
30614;BME280;17381;51.690;5.270;2023-05-13T07:31:42;102116.38;;;15.45;66.57
30614;BME280;17381;51.690;5.270;2023-05-13T07:34:17;102110.31;;;15.42;66.27
30614;BME280;17381;51.690;5.270;2023-05-13T07:40:08;102111.75;;;15.54;66.57
30614;BME280;17381;51.690;5.270;2023-05-13T07:43:01;102108.03;;;15.61;66.49
30614;BME280;17381;51.690;5.270;2023-05-13T07:45:44;102118.25;;;15.78;66.80
30614;BME280;17381;51.690;5.270;2023-05-13T07:48:27;102111.72;;;15.89;67.14
30614;BME280;17381;51.690;5.270;2023-05-13T07:51:03;102096.00;;;15.83;66.96
30614;BME280;17381;51.690;5.270;2023-05-13T07:53:49;102072.28;;;15.77;66.82
30614;BME280;17381;51.690;5.270;2023-05-13T07:56:28;102119.16;;;16.08;66.63
30614;BME280;17381;51.690;5.270;2023-05-13T07:59:38;102121.53;;;16.19;66.85
30614;BME280;17381;51.690;5.270;2023-05-13T08:02:07;102077.88;;;15.98;66.34
30614;BME280;17381;51.690;5.270;2023-05-13T08:05:06;102123.88;;;16.29;66.62
30614;BME280;17381;51.690;5.270;2023-05-13T08:07:48;102122.84;;;16.33;66.33
30614;BME280;17381;51.690;5.270;2023-05-13T08:10:26;102065.94;;;16.14;66.24
30614;BME280;17381;51.690;5.270;2023-05-13T08:16:08;102120.38;;;16.57;66.65
30614;BME280;17381;51.690;5.270;2023-05-13T08:18:38;102120.97;;;16.67;66.49
30614;BME280;17381;51.690;5.270;2023-05-13T08:21:33;102115.34;;;16.77;65.69
30614;BME280;17381;51.690;5.270;2023-05-13T08:24:22;102107.25;;;16.82;65.54
30614;BME280;17381;51.690;5.270;2023-05-13T08:31:44;102084.31;;;16.79;64.65
30614;BME280;17381;51.690;5.270;2023-05-13T08:50:23;102099.75;;;17.73;64.27
30614;BME280;17381;51.690;5.270;2023-05-13T08:57:09;102106.28;;;18.15;64.27
30614;BME280;17381;51.690;5.270;2023-05-13T09:08:17;102110.91;;;18.80;60.88
30614;BME280;17381;51.690;5.270;2023-05-13T09:11:31;102107.63;;;18.95;62.19
30614;BME280;17381;51.690;5.270;2023-05-13T09:14:29;102107.28;;;19.25;61.84
30614;BME280;17381;51.690;5.270;2023-05-13T09:21:38;102101.66;;;19.94;61.58
30614;BME280;17381;51.690;5.270;2023-05-13T09:28:43;102104.91;;;20.40;59.28
30614;BME280;17381;51.690;5.270;2023-05-13T09:35:18;102107.06;;;20.89;57.98
30614;BME280;17381;51.690;5.270;2023-05-13T09:38:51;102089.78;;;21.13;58.98
30614;BME280;17381;51.690;5.270;2023-05-13T09:45:44;102081.16;;;21.61;57.54
30614;BME280;17381;51.690;5.270;2023-05-13T09:48:43;102086.66;;;21.75;56.46
30614;BME280;17381;51.690;5.270;2023-05-13T09:51:41;102083.34;;;21.87;54.40
30614;BME280;17381;51.690;5.270;2023-05-13T09:54:33;102094.28;;;22.00;55.46
30614;BME280;17381;51.690;5.270;2023-05-13T09:57:25;102084.44;;;22.16;54.21
30614;BME280;17381;51.690;5.270;2023-05-13T10:00:30;102085.03;;;22.39;53.57
30614;BME280;17381;51.690;5.270;2023-05-13T10:03:32;102081.13;;;22.60;53.50
30614;BME280;17381;51.690;5.270;2023-05-13T10:17:01;102032.66;;;23.11;51.59
30614;BME280;17381;51.690;5.270;2023-05-13T10:23:15;102055.03;;;23.40;47.79
30614;BME280;17381;51.690;5.270;2023-05-13T10:26:05;102054.31;;;23.52;48.98
30614;BME280;17381;51.690;5.270;2023-05-13T10:28:55;102057.88;;;23.67;47.80
30614;BME280;17381;51.690;5.270;2023-05-13T10:31:50;102053.09;;;23.87;47.84
30614;BME280;17381;51.690;5.270;2023-05-13T10:34:31;102054.34;;;24.10;51.06
30614;BME280;17381;51.690;5.270;2023-05-13T10:47:39;102048.56;;;24.99;46.91
30614;BME280;17381;51.690;5.270;2023-05-13T10:53:24;102051.75;;;25.18;47.64
30614;BME280;17381;51.690;5.270;2023-05-13T10:56:37;102046.94;;;25.36;47.35
30614;BME280;17381;51.690;5.270;2023-05-13T11:02:36;102049.41;;;25.52;43.05
30614;BME280;17381;51.690;5.270;2023-05-13T11:16:43;102037.22;;;26.10;43.85
30614;BME280;17381;51.690;5.270;2023-05-13T11:20:16;102033.72;;;26.34;43.05
30614;BME280;17381;51.690;5.270;2023-05-13T11:23:25;102025.94;;;26.66;43.58
30614;BME280;17381;51.690;5.270;2023-05-13T11:32:08;102011.88;;;27.09;40.57
30614;BME280;17381;51.690;5.270;2023-05-13T11:35:35;102015.03;;;27.27;42.18
30614;BME280;17381;51.690;5.270;2023-05-13T11:38:56;102014.44;;;27.35;38.81
30614;BME280;17381;51.690;5.270;2023-05-13T11:42:01;102005.59;;;27.44;38.45
30614;BME280;17381;51.690;5.270;2023-05-13T11:44:50;101994.06;;;27.42;40.09
30614;BME280;17381;51.690;5.270;2023-05-13T11:50:52;102002.78;;;27.79;39.87
30614;BME280;17381;51.690;5.270;2023-05-13T11:53:53;101994.22;;;27.97;37.38
30614;BME280;17381;51.690;5.270;2023-05-13T11:57:12;102000.94;;;27.80;37.09
30614;BME280;17381;51.690;5.270;2023-05-13T12:00:11;101992.97;;;27.67;39.90
30614;BME280;17381;51.690;5.270;2023-05-13T12:03:07;101996.16;;;27.50;39.33
30614;BME280;17381;51.690;5.270;2023-05-13T12:09:27;101992.47;;;27.39;36.67
30614;BME280;17381;51.690;5.270;2023-05-13T12:12:41;101996.66;;;27.66;36.62
30614;BME280;17381;51.690;5.270;2023-05-13T12:40:53;101980.31;;;27.56;34.92
30614;BME280;17381;51.690;5.270;2023-05-13T12:44:23;101973.69;;;27.94;33.22
30614;BME280;17381;51.690;5.270;2023-05-13T12:47:21;101974.78;;;28.03;32.10
30614;BME280;17381;51.690;5.270;2023-05-13T12:50:05;101940.66;;;27.46;32.68
30614;BME280;17381;51.690;5.270;2023-05-13T12:53:14;101979.94;;;27.27;33.65
30614;BME280;17381;51.690;5.270;2023-05-13T12:59:44;101964.72;;;27.49;33.70
30614;BME280;17381;51.690;5.270;2023-05-13T13:09:30;101959.72;;;28.65;33.74
30614;BME280;17381;51.690;5.270;2023-05-13T13:12:44;101957.69;;;28.78;32.84
30614;BME280;17381;51.690;5.270;2023-05-13T13:15:59;101963.34;;;28.11;29.04
30614;BME280;17381;51.690;5.270;2023-05-13T13:18:51;101969.88;;;27.40;31.68
30614;BME280;17381;51.690;5.270;2023-05-13T13:21:45;101967.78;;;27.22;33.36
30614;BME280;17381;51.690;5.270;2023-05-13T13:27:48;101930.22;;;27.52;34.05
30614;BME280;17381;51.690;5.270;2023-05-13T13:31:25;101967.38;;;28.27;34.23
30614;BME280;17381;51.690;5.270;2023-05-13T13:34:04;101963.06;;;28.68;32.71
30614;BME280;17381;51.690;5.270;2023-05-13T13:40:40;101969.16;;;29.24;30.53
30614;BME280;17381;51.690;5.270;2023-05-13T13:43:20;101950.31;;;29.43;32.06
30614;BME280;17381;51.690;5.270;2023-05-13T13:46:19;101956.59;;;29.74;31.17
30614;BME280;17381;51.690;5.270;2023-05-13T13:49:04;101957.63;;;29.93;31.58
30614;BME280;17381;51.690;5.270;2023-05-13T13:51:49;101948.38;;;30.15;32.20
30614;BME280;17381;51.690;5.270;2023-05-13T14:02:00;101937.78;;;29.21;30.85
30614;BME280;17381;51.690;5.270;2023-05-13T14:08:14;101947.66;;;27.93;30.84
30614;BME280;17381;51.690;5.270;2023-05-13T14:11:08;101937.09;;;27.34;31.96
30614;BME280;17381;51.690;5.270;2023-05-13T14:14:07;101939.66;;;27.24;34.05
30614;BME280;17381;51.690;5.270;2023-05-13T14:17:17;101908.34;;;27.44;36.26
30614;BME280;17381;51.690;5.270;2023-05-13T14:20:10;101933.75;;;27.98;34.17
30614;BME280;17381;51.690;5.270;2023-05-13T14:23:31;101937.09;;;27.45;32.28
30614;BME280;17381;51.690;5.270;2023-05-13T14:26:53;101926.69;;;26.83;32.73
30614;BME280;17381;51.690;5.270;2023-05-13T14:29:38;101922.66;;;26.29;31.82
30614;BME280;17381;51.690;5.270;2023-05-13T14:32:34;101911.22;;;26.25;34.50
30614;BME280;17381;51.690;5.270;2023-05-13T14:35:31;101925.34;;;26.88;33.27
30614;BME280;17381;51.690;5.270;2023-05-13T14:38:24;101925.56;;;27.43;33.89
30614;BME280;17381;51.690;5.270;2023-05-13T14:41:18;101876.13;;;27.75;33.56
30614;BME280;17381;51.690;5.270;2023-05-13T14:44:16;101913.84;;;28.42;32.34
30614;BME280;17381;51.690;5.270;2023-05-13T14:47:17;101860.41;;;28.56;32.63
30614;BME280;17381;51.690;5.270;2023-05-13T14:50:53;101908.72;;;29.02;30.28
30614;BME280;17381;51.690;5.270;2023-05-13T14:54:01;101875.06;;;28.74;32.78
30614;BME280;17381;51.690;5.270;2023-05-13T14:57:19;101906.53;;;28.54;32.22
30614;BME280;17381;51.690;5.270;2023-05-13T15:03:30;101919.16;;;27.33;31.62
30614;BME280;17381;51.690;5.270;2023-05-13T15:06:45;101912.53;;;27.71;30.96
30614;BME280;17381;51.690;5.270;2023-05-13T15:09:22;101903.75;;;28.01;33.83
30614;BME280;17381;51.690;5.270;2023-05-13T15:12:11;101905.22;;;28.48;36.39
30614;BME280;17381;51.690;5.270;2023-05-13T15:15:13;101892.94;;;28.86;29.78
30614;BME280;17381;51.690;5.270;2023-05-13T15:18:12;101890.56;;;28.93;27.54
30614;BME280;17381;51.690;5.270;2023-05-13T15:21:22;101895.50;;;29.09;31.28
30614;BME280;17381;51.690;5.270;2023-05-13T15:27:47;101888.50;;;29.06;27.14
30614;BME280;17381;51.690;5.270;2023-05-13T15:30:59;101891.28;;;29.16;29.55
30614;BME280;17381;51.690;5.270;2023-05-13T15:34:16;101880.63;;;29.24;29.14
30614;BME280;17381;51.690;5.270;2023-05-13T15:37:37;101890.59;;;29.03;27.30
30614;BME280;17381;51.690;5.270;2023-05-13T15:44:24;101888.94;;;28.27;29.79
30614;BME280;17381;51.690;5.270;2023-05-13T15:47:54;101883.63;;;27.94;27.73
30614;BME280;17381;51.690;5.270;2023-05-13T15:54:20;101880.78;;;28.07;30.38
30614;BME280;17381;51.690;5.270;2023-05-13T16:04:36;101875.97;;;28.42;29.52
30614;BME280;17381;51.690;5.270;2023-05-13T16:11:06;101873.91;;;28.35;30.65
30614;BME280;17381;51.690;5.270;2023-05-13T16:14:23;101864.41;;;28.40;31.54
30614;BME280;17381;51.690;5.270;2023-05-13T16:17:12;101868.16;;;28.28;30.17
30614;BME280;17381;51.690;5.270;2023-05-13T16:23:38;101877.25;;;27.95;30.49
30614;BME280;17381;51.690;5.270;2023-05-13T16:26:47;101847.19;;;27.66;27.35
30614;BME280;17381;51.690;5.270;2023-05-13T16:30:18;101867.22;;;27.40;28.37
30614;BME280;17381;51.690;5.270;2023-05-13T16:40:03;101869.63;;;26.87;31.03
30614;BME280;17381;51.690;5.270;2023-05-13T16:42:51;101867.31;;;26.83;32.33
30614;BME280;17381;51.690;5.270;2023-05-13T16:46:31;101867.28;;;26.71;31.90
30614;BME280;17381;51.690;5.270;2023-05-13T16:49:17;101862.78;;;26.48;29.55
30614;BME280;17381;51.690;5.270;2023-05-13T16:52:42;101855.78;;;26.10;29.62
30614;BME280;17381;51.690;5.270;2023-05-13T16:56:06;101853.50;;;25.56;30.85
30614;BME280;17381;51.690;5.270;2023-05-13T16:59:19;101869.47;;;25.33;31.39
30614;BME280;17381;51.690;5.270;2023-05-13T17:02:59;101870.09;;;24.98;32.26
30614;BME280;17381;51.690;5.270;2023-05-13T17:06:12;101855.91;;;24.71;32.80
30614;BME280;17381;51.690;5.270;2023-05-13T17:09:07;101865.38;;;24.64;32.86
30614;BME280;17381;51.690;5.270;2023-05-13T17:12:05;101865.34;;;24.51;33.59
30614;BME280;17381;51.690;5.270;2023-05-13T17:15:18;101860.47;;;24.43;33.93
30614;BME280;17381;51.690;5.270;2023-05-13T17:18:43;101861.06;;;24.34;34.43
30614;BME280;17381;51.690;5.270;2023-05-13T17:22:14;101869.56;;;24.28;34.24
30614;BME280;17381;51.690;5.270;2023-05-13T17:25:17;101864.44;;;24.10;34.13
30614;BME280;17381;51.690;5.270;2023-05-13T17:28:16;101867.69;;;23.88;34.77
30614;BME280;17381;51.690;5.270;2023-05-13T17:30:54;101859.00;;;23.70;35.86
30614;BME280;17381;51.690;5.270;2023-05-13T17:33:53;101863.50;;;23.70;37.51
30614;BME280;17381;51.690;5.270;2023-05-13T17:37:13;101866.78;;;23.61;37.24
30614;BME280;17381;51.690;5.270;2023-05-13T17:40:50;101871.28;;;23.46;39.05
30614;BME280;17381;51.690;5.270;2023-05-13T17:43:47;101807.41;;;22.95;39.84
30614;BME280;17381;51.690;5.270;2023-05-13T17:46:48;101876.78;;;23.30;40.37
30614;BME280;17381;51.690;5.270;2023-05-13T17:50:07;101877.81;;;23.27;41.10
30614;BME280;17381;51.690;5.270;2023-05-13T17:53:14;101882.34;;;23.27;41.66
30614;BME280;17381;51.690;5.270;2023-05-13T17:56:22;101850.38;;;22.94;41.33
30614;BME280;17381;51.690;5.270;2023-05-13T18:03:40;101894.06;;;22.96;41.65
30614;BME280;17381;51.690;5.270;2023-05-13T18:06:52;101876.81;;;22.85;41.99
30614;BME280;17381;51.690;5.270;2023-05-13T18:10:28;101893.75;;;22.86;42.01
30614;BME280;17381;51.690;5.270;2023-05-13T18:13:49;101886.97;;;22.80;42.65
30614;BME280;17381;51.690;5.270;2023-05-13T18:17:30;101885.88;;;22.69;41.92
30614;BME280;17381;51.690;5.270;2023-05-13T18:21:02;101878.06;;;22.50;42.56
30614;BME280;17381;51.690;5.270;2023-05-13T18:24:06;101894.06;;;22.51;43.35
30614;BME280;17381;51.690;5.270;2023-05-13T18:27:02;101893.56;;;22.45;43.22
30614;BME280;17381;51.690;5.270;2023-05-13T18:29:55;101855.25;;;22.12;43.52
30614;BME280;17381;51.690;5.270;2023-05-13T18:32:37;101889.09;;;22.29;43.85
30614;BME280;17381;51.690;5.270;2023-05-13T18:35:36;101900.41;;;22.34;44.50
30614;BME280;17381;51.690;5.270;2023-05-13T18:38:47;101886.88;;;22.21;44.58
30614;BME280;17381;51.690;5.270;2023-05-13T18:42:07;101900.34;;;22.20;45.10
30614;BME280;17381;51.690;5.270;2023-05-13T18:49:39;101911.16;;;21.87;45.74
30614;BME280;17381;51.690;5.270;2023-05-13T18:52:56;101913.66;;;21.74;46.04
30614;BME280;17381;51.690;5.270;2023-05-13T18:55:52;101897.66;;;21.56;46.68
30614;BME280;17381;51.690;5.270;2023-05-13T19:05:41;101915.94;;;21.31;47.92
30614;BME280;17381;51.690;5.270;2023-05-13T19:20:06;101928.50;;;20.96;49.32
30614;BME280;17381;51.690;5.270;2023-05-13T19:23:02;101934.13;;;20.91;49.79
30614;BME280;17381;51.690;5.270;2023-05-13T19:26:07;101927.56;;;20.79;49.70
30614;BME280;17381;51.690;5.270;2023-05-13T19:29:17;101938.97;;;20.65;50.46
30614;BME280;17381;51.690;5.270;2023-05-13T19:32:42;101930.34;;;20.60;50.89